Svitzer Setubal — CSYQ7 — position and weather

sailwx.info

Track history (hours):
 
Tides and Currents Weather Stations Pressure Air Temp Water Temp Dewpoint Dewpoint Depression Visibility Wind Speed Wind Dir Waves Ship Positions

Svitzer Setubal

Last reported at 2018-May-21 10:42 UTC. Time now 2018-May-21 11:10 UTC.
Position N 38°30' W 008°50'.

Length 33 m; draft 4.4 m.

Type: Tug. MMSI: 263602553.

Date/timePositionNaut miles runAvg speedWind from/ knotsBaromVisibWave heightAir tempDewpointWater temp
2018-May-21 10:42N 38°30' W 008°50'0 0.0
2018-May-21 10:29N 38°30' W 008°50'0 0.0
2018-May-21 09:58N 38°30' W 008°50'0 0.0
2018-May-21 09:20N 38°30' W 008°50'1 2.6
2018-May-21 08:59N 38°30' W 008°51'2 3.7
2018-May-21 08:28N 38°30' W 008°54'4 8.1
2018-May-21 08:00N 38°28' W 008°49'2 3.4
2018-May-21 07:30N 38°28' W 008°47'0 0.2
2018-May-21 07:00N 38°28' W 008°47'1 1.0
2018-May-21 06:30N 38°28' W 008°48'0 0.0
2018-May-21 06:00N 38°28' W 008°48'3 5.1
2018-May-21 05:30N 38°28' W 008°51'3 6.2
2018-May-21 04:59N 38°31' W 008°54'3 5.8
2018-May-21 04:29N 38°30' W 008°50'0 0.0
2018-May-21 04:00N 38°30' W 008°50'0 0.0
2018-May-21 03:27N 38°30' W 008°50'0 0.0
2018-May-21 03:00N 38°30' W 008°50'0 0.0
2018-May-21 02:28N 38°30' W 008°50'0 0.0
2018-May-21 01:59N 38°30' W 008°50'0 0.0
2018-May-21 01:30N 38°30' W 008°50'0 0.0
2018-May-21 01:00N 38°30' W 008°50'0 0.0
2018-May-21 00:30N 38°30' W 008°50'0 0.0
2018-May-21 00:00N 38°30' W 008°50'0 0.0
2018-May-20 23:07N 38°30' W 008°50'0 0.0
2018-May-20 22:00N 38°30' W 008°50'0 0.0
2018-May-20 21:29N 38°30' W 008°50'2 3.2
2018-May-20 21:00N 38°31' W 008°52'1 2.8
2018-May-20 20:30N 38°29' W 008°53'4 7.9
2018-May-20 20:00N 38°28' W 008°48'1 1.8
2018-May-20 19:30N 38°28' W 008°47'1 2.8
2018-May-20 19:00N 38°28' W 008°49'3 5.1
2018-May-20 18:30N 38°29' W 008°52'3 5.0
2018-May-20 18:00N 38°28' W 008°49'1 1.6
2018-May-20 17:30N 38°28' W 008°48'3 5.4
2018-May-20 17:00N 38°28' W 008°51'3 6.4
2018-May-20 16:30N 38°31' W 008°54'3 6.0
2018-May-20 16:00N 38°30' W 008°50'0 0.0
2018-May-20 15:30N 38°30' W 008°50'0 0.0
2018-May-20 15:00N 38°30' W 008°50'0 0.0
2018-May-20 14:30N 38°30' W 008°50'0 0.0
2018-May-20 14:00N 38°30' W 008°50'0 0.0
2018-May-20 13:30N 38°30' W 008°50'0 0.0
2018-May-20 13:00N 38°30' W 008°50'0 0.0
2018-May-20 12:30N 38°30' W 008°50'0 0.0
2018-May-20 12:00N 38°30' W 008°50'0 0.0
2018-May-20 11:30N 38°30' W 008°50'0 0.0
2018-May-20 11:00N 38°30' W 008°50'0 0.0
2018-May-20 10:30N 38°30' W 008°50'0 0.0
2018-May-20 10:00N 38°30' W 008°50'0 0.0
2018-May-20 09:30N 38°30' W 008°50'0 0.0
2018-May-20 09:00N 38°30' W 008°50'3 5.5
2018-May-20 08:30N 38°31' W 008°53'2 4.8
2018-May-20 08:01N 38°29' W 008°52'1 1.6
2018-May-20 07:30N 38°28' W 008°51'3 4.9
2018-May-20 06:59N 38°28' W 008°48'0 0.8
2018-May-20 06:30N 38°28' W 008°48'0 0.1
2018-May-20 06:00N 38°28' W 008°48'0 0.1
2018-May-20 05:30N 38°28' W 008°48'3 5.5
2018-May-20 04:58N 38°29' W 008°52'3 5.7
2018-May-20 04:30N 38°31' W 008°54'3 5.8
2018-May-20 04:00N 38°30' W 008°50'0 0.0
2018-May-20 03:28N 38°30' W 008°50'0 0.0
2018-May-20 03:00N 38°30' W 008°50'0 0.0
2018-May-20 02:30N 38°30' W 008°50'0 0.0
2018-May-20 02:00N 38°30' W 008°50'0 0.0
2018-May-20 01:28N 38°30' W 008°50'0 0.0
2018-May-20 01:00N 38°30' W 008°50'0 0.0
2018-May-20 00:30N 38°30' W 008°50'0 0.0
2018-May-19 23:59N 38°30' W 008°50'0 0.0
2018-May-19 23:30N 38°30' W 008°50'0 0.0
2018-May-19 22:55N 38°30' W 008°50'0 0.0
2018-May-19 22:29N 38°30' W 008°50'0 0.0
2018-May-19 21:39N 38°30' W 008°50'0 0.0
2018-May-19 21:30N 38°30' W 008°50'0 0.0
2018-May-19 20:58N 38°30' W 008°50'0 0.0
2018-May-19 20:20N 38°30' W 008°50'0 0.0
2018-May-19 19:59N 38°30' W 008°50'0 0.0
2018-May-19 19:29N 38°30' W 008°50'0 0.0
2018-May-19 18:59N 38°30' W 008°50'0 0.0
2018-May-19 18:29N 38°30' W 008°50'0 0.0
2018-May-19 18:00N 38°30' W 008°50'0 0.0
2018-May-19 17:29N 38°30' W 008°50'0 0.0
2018-May-19 16:59N 38°30' W 008°50'0 0.0
2018-May-19 16:30N 38°30' W 008°50'0 0.0
2018-May-19 16:00N 38°30' W 008°50'0 0.0
2018-May-19 15:30N 38°30' W 008°50'0 0.0
2018-May-19 15:00N 38°30' W 008°50'0 0.0
2018-May-19 14:31N 38°30' W 008°50'0 0.0
2018-May-19 14:00N 38°30' W 008°50'0 0.0
2018-May-19 13:30N 38°30' W 008°50'0 0.0
2018-May-19 13:00N 38°30' W 008°50'0 0.0
2018-May-19 12:30N 38°30' W 008°50'0 0.0
2018-May-19 12:00N 38°30' W 008°50'0 0.0
2018-May-19 11:30N 38°30' W 008°50'0 0.0
2018-May-19 11:01N 38°30' W 008°50'0 0.0
2018-May-19 10:29N 38°30' W 008°50'0 0.0
2018-May-19 09:54N 38°30' W 008°50'0 0.0
2018-May-19 09:12N 38°30' W 008°50'0 0.0
2018-May-19 08:26N 38°30' W 008°50'0 0.0
2018-May-19 07:58N 38°30' W 008°50'0 0.0
2018-May-19 07:29N 38°30' W 008°50'0 0.0
2018-May-19 06:55N 38°30' W 008°50'0 0.0
2018-May-19 06:27N 38°30' W 008°50'0 0.0
2018-May-19 06:00N 38°30' W 008°50'0 0.0
2018-May-19 05:30N 38°30' W 008°50'0 0.0
2018-May-19 05:00N 38°30' W 008°50'0 0.0
2018-May-19 04:06N 38°30' W 008°50'0 0.0
2018-May-19 04:00N 38°30' W 008°50'0 0.0
2018-May-19 03:31N 38°30' W 008°50'0 0.0
2018-May-19 03:00N 38°30' W 008°50'0 0.0
2018-May-19 02:31N 38°30' W 008°50'0 0.0
2018-May-19 01:58N 38°30' W 008°50'0 0.0
2018-May-19 01:27N 38°30' W 008°50'0 0.0
2018-May-19 01:00N 38°30' W 008°50'0 0.0
2018-May-19 00:29N 38°30' W 008°50'0 0.0
2018-May-18 23:59N 38°30' W 008°50'0 0.0
2018-May-18 23:27N 38°30' W 008°50'0 0.0
2018-May-18 22:59N 38°30' W 008°50'0 0.0
2018-May-18 22:30N 38°30' W 008°50'0 0.0
2018-May-18 21:57N 38°30' W 008°50'0 0.0
2018-May-18 21:26N 38°30' W 008°50'0 0.0
2018-May-18 20:59N 38°30' W 008°50'0 0.0
2018-May-18 19:37N 38°30' W 008°50'0 0.0
2018-May-18 19:21N 38°30' W 008°50'0 0.0
2018-May-18 18:53N 38°30' W 008°50'0 0.0
2018-May-18 18:30N 38°30' W 008°50'0 0.0
2018-May-18 17:59N 38°30' W 008°50'0 0.0
2018-May-18 17:07N 38°30' W 008°50'0 0.0
2018-May-18 16:58N 38°30' W 008°50'0 0.0
2018-May-18 16:21N 38°30' W 008°50'0 0.0
2018-May-18 16:00N 38°30' W 008°50'0 0.0
2018-May-18 15:29N 38°30' W 008°50'0 0.0
2018-May-18 15:00N 38°30' W 008°50'0 0.0
2018-May-18 14:18N 38°30' W 008°50'0 0.0
2018-May-18 13:58N 38°30' W 008°50'0 0.0
2018-May-18 13:27N 38°30' W 008°50'0 0.1
2018-May-18 13:00N 38°30' W 008°50'4 6.7
2018-May-18 12:29N 38°30' W 008°55'4 8.0
2018-May-18 12:00N 38°27' W 008°58'4 7.7
2018-May-18 11:30N 38°23' W 008°59'4 8.0
2018-May-18 11:00N 38°20' W 008°59'4 7.9
2018-May-18 10:30N 38°16' W 008°58'4 8.0
2018-May-18 10:00N 38°12' W 008°57'4 7.8
2018-May-18 09:30N 38°08' W 008°56'4 7.9
2018-May-18 09:00N 38°04' W 008°56'4 7.9
2018-May-18 08:30N 37°60' W 008°55'4 7.8
2018-May-18 08:00N 37°56' W 008°54'2 4.1
2018-May-18 07:30N 37°57' W 008°52'0 0.0
2018-May-18 07:01N 37°57' W 008°52'0 0.0
2018-May-18 06:30N 37°57' W 008°52'1 1.4
2018-May-18 06:01N 37°56' W 008°52'1 2.4
2018-May-18 05:30N 37°56' W 008°51'0 0.5
2018-May-18 05:00N 37°56' W 008°51'1 1.2
2018-May-18 04:30N 37°55' W 008°50'1 1.2
2018-May-18 04:00N 37°55' W 008°51'1 2.9
2018-May-18 03:30N 37°57' W 008°52'0 0.7
2018-May-18 03:00N 37°57' W 008°52'0 0.0
2018-May-18 02:30N 37°57' W 008°52'0 0.0
2018-May-18 02:00N 37°57' W 008°52'0 0.0
2018-May-18 01:30N 37°57' W 008°52'0 0.0
2018-May-18 01:00N 37°57' W 008°52'0 0.0
2018-May-18 00:30N 37°57' W 008°52'0 0.0
2018-May-18 00:00N 37°57' W 008°52'0 0.0
2018-May-17 23:30N 37°57' W 008°52'0 0.0
2018-May-17 23:00N 37°57' W 008°52'0 0.0
2018-May-17 22:30N 37°57' W 008°52'0 0.0
2018-May-17 22:01N 37°57' W 008°52'0 0.0
2018-May-17 21:30N 37°57' W 008°52'0 0.0
2018-May-17 21:00N 37°57' W 008°52'0 0.0
2018-May-17 20:30N 37°57' W 008°52'0 0.0
2018-May-17 20:00N 37°57' W 008°52'0 0.0
2018-May-17 19:30N 37°57' W 008°52'0 0.0
2018-May-17 19:00N 37°57' W 008°52'0 0.0
2018-May-17 18:30N 37°57' W 008°52'0 0.0
2018-May-17 18:01N 37°57' W 008°52'0 0.0
2018-May-17 17:30N 37°57' W 008°52'0 0.0
2018-May-17 17:01N 37°57' W 008°52'0 0.0
2018-May-17 16:30N 37°57' W 008°52'0 0.0
2018-May-17 16:00N 37°57' W 008°52'0 0.0
2018-May-17 15:30N 37°57' W 008°52'0 0.0
2018-May-17 15:00N 37°57' W 008°52'0 0.0
2018-May-17 14:30N 37°57' W 008°52'0 0.0
2018-May-17 14:00N 37°57' W 008°52'0 0.0
2018-May-17 13:30N 37°57' W 008°52'0 0.0
2018-May-17 13:00N 37°57' W 008°52'0 0.0
2018-May-17 12:30N 37°57' W 008°52'0 0.0
2018-May-17 12:00N 37°57' W 008°52'0 0.0
2018-May-17 11:30N 37°57' W 008°52'0 0.0
2018-May-17 11:00N 37°57' W 008°52'0 0.0
2018-May-17 10:31N 37°57' W 008°52'0 0.0
2018-May-17 10:00N 37°57' W 008°52'0 0.0
2018-May-17 09:30N 37°57' W 008°52'0 0.0
2018-May-17 09:00N 37°57' W 008°52'0 0.0
2018-May-17 08:30N 37°57' W 008°52'0 0.0
2018-May-17 08:00N 37°57' W 008°52'0 0.0
2018-May-17 07:30N 37°57' W 008°52'0 0.0
2018-May-17 07:01N 37°57' W 008°52'0 0.0
2018-May-17 06:30N 37°57' W 008°52'0 0.0
2018-May-17 06:01N 37°57' W 008°52'0 0.0
2018-May-17 05:31N 37°57' W 008°52'0 0.0
2018-May-17 05:00N 37°57' W 008°52'0 0.0
2018-May-17 04:30N 37°57' W 008°52'0 0.0
2018-May-17 04:01N 37°57' W 008°52'0 0.0
2018-May-17 03:30N 37°57' W 008°52'0 0.0
2018-May-17 03:00N 37°57' W 008°52'0 0.0
2018-May-17 02:30N 37°57' W 008°52'0 0.0
2018-May-17 02:00N 37°57' W 008°52'0 0.0
2018-May-17 01:31N 37°57' W 008°52'0 0.0
2018-May-17 01:00N 37°57' W 008°52'0 0.0
2018-May-17 00:31N 37°57' W 008°52'0 0.0
2018-May-17 00:00N 37°57' W 008°52'0 0.0
2018-May-16 23:31N 37°57' W 008°52'0 0.0
2018-May-16 23:00N 37°57' W 008°52'0 0.0
2018-May-16 22:30N 37°57' W 008°52'0 0.0
2018-May-16 22:00N 37°57' W 008°52'0 0.0
2018-May-16 21:31N 37°57' W 008°52'0 0.0
2018-May-16 21:00N 37°57' W 008°52'0 0.0
2018-May-16 20:31N 37°57' W 008°52'0 0.0
2018-May-16 20:01N 37°57' W 008°52'2 4.5
2018-May-16 19:30N 37°57' W 008°54'4 7.5
2018-May-16 19:00N 38°01' W 008°55'2 4.6
2018-May-16 18:30N 37°59' W 008°55'3 5.8
2018-May-16 18:00N 37°56' W 008°52'1 1.6
2018-May-16 17:30N 37°57' W 008°52'0 0.0
2018-May-16 17:00N 37°57' W 008°52'0 0.0
2018-May-16 16:30N 37°57' W 008°52'0 0.0
2018-May-16 16:00N 37°57' W 008°52'0 0.0
2018-May-16 15:30N 37°57' W 008°52'0 0.0
2018-May-16 15:00N 37°57' W 008°52'0 0.0
2018-May-16 14:31N 37°57' W 008°52'0 0.0
2018-May-16 14:00N 37°57' W 008°52'0 0.0
2018-May-16 13:30N 37°57' W 008°52'0 0.0
2018-May-16 13:01N 37°57' W 008°52'0 0.0
2018-May-16 12:30N 37°57' W 008°52'0 0.0
2018-May-16 12:00N 37°57' W 008°52'0 0.0
2018-May-16 11:31N 37°57' W 008°52'0 0.0
2018-May-16 11:01N 37°57' W 008°52'0 0.0
2018-May-16 10:30N 37°57' W 008°52'0 0.0
2018-May-16 10:00N 37°57' W 008°52'0 0.0
2018-May-16 09:30N 37°57' W 008°52'0 0.0
2018-May-16 09:00N 37°57' W 008°52'0 0.0
2018-May-16 08:31N 37°57' W 008°52'0 0.0
2018-May-16 08:00N 37°57' W 008°52'0 0.0
2018-May-16 07:30N 37°57' W 008°52'1 1.2
2018-May-16 07:01N 37°56' W 008°52'1 1.8
2018-May-16 06:31N 37°56' W 008°51'0 0.0
2018-May-16 06:00N 37°56' W 008°51'0 0.0
2018-May-16 05:30N 37°56' W 008°51'0 0.0
2018-May-16 05:00N 37°56' W 008°51'0 0.0
2018-May-16 04:31N 37°56' W 008°51'0 0.0
2018-May-16 04:00N 37°56' W 008°51'0 0.0
2018-May-16 03:30N 37°56' W 008°51'0 0.0
2018-May-16 03:01N 37°56' W 008°51'0 0.0
2018-May-16 02:30N 37°56' W 008°51'0 0.0
2018-May-16 02:00N 37°56' W 008°51'0 0.0
2018-May-16 01:30N 37°56' W 008°51'0 0.0
2018-May-16 01:00N 37°56' W 008°51'0 0.0
2018-May-16 00:30N 37°56' W 008°51'0 0.0
2018-May-16 00:00N 37°56' W 008°51'0 0.0
2018-May-15 23:31N 37°56' W 008°51'0 0.0
2018-May-15 23:00N 37°56' W 008°51'0 0.0
2018-May-15 22:30N 37°56' W 008°51'0 0.0
2018-May-15 22:01N 37°56' W 008°51'0 0.0
2018-May-15 21:31N 37°56' W 008°51'0 0.0
2018-May-15 21:00N 37°56' W 008°51'0 0.0
2018-May-15 20:30N 37°56' W 008°51'0 0.0
2018-May-15 20:00N 37°56' W 008°51'0 0.0
2018-May-15 19:30N 37°56' W 008°51'0 0.0
2018-May-15 19:00N 37°56' W 008°51'0 0.0
2018-May-15 18:30N 37°56' W 008°51'0 0.0
2018-May-15 18:00N 37°56' W 008°51'0 0.0
2018-May-15 17:30N 37°56' W 008°51'0 0.0
2018-May-15 17:00N 37°56' W 008°51'0 0.0
2018-May-15 16:30N 37°56' W 008°51'0 0.0
2018-May-15 16:01N 37°56' W 008°51'0 0.0
2018-May-15 15:31N 37°56' W 008°51'0 0.0
2018-May-15 15:00N 37°56' W 008°51'0 0.0
2018-May-15 14:30N 37°56' W 008°51'0 0.0
2018-May-15 14:01N 37°56' W 008°51'0 0.3
2018-May-15 13:30N 37°56' W 008°51'0 0.3
2018-May-15 13:00N 37°56' W 008°51'2 3.7
2018-May-15 12:30N 37°54' W 008°50'2 3.7
2018-May-15 12:01N 37°56' W 008°51'0 0.1
2018-May-15 11:30N 37°56' W 008°51'0 0.6
2018-May-15 11:00N 37°56' W 008°51'0 0.0
2018-May-15 10:30N 37°56' W 008°51'0 0.0
2018-May-15 10:00N 37°56' W 008°51'0 0.0
2018-May-15 09:30N 37°56' W 008°51'0 0.3
2018-May-15 09:01N 37°56' W 008°51'2 3.3
2018-May-15 08:31N 37°54' W 008°50'2 3.4
2018-May-15 08:00N 37°56' W 008°51'0 0.3
2018-May-15 07:31N 37°56' W 008°51'0 0.0
2018-May-15 07:00N 37°56' W 008°51'0 0.0
2018-May-15 06:30N 37°56' W 008°51'0 0.0
2018-May-15 06:00N 37°56' W 008°51'0 0.0
2018-May-15 05:30N 37°56' W 008°51'0 0.0
2018-May-15 05:00N 37°56' W 008°51'0 0.0
2018-May-15 04:31N 37°56' W 008°51'0 0.0
2018-May-15 04:00N 37°56' W 008°51'0 0.0
2018-May-15 03:30N 37°56' W 008°51'0 0.0
2018-May-15 03:00N 37°56' W 008°51'0 0.0
2018-May-15 02:30N 37°56' W 008°51'0 0.0
2018-May-15 02:00N 37°56' W 008°51'0 0.0
2018-May-15 01:30N 37°56' W 008°51'0 0.0
2018-May-15 01:00N 37°56' W 008°51'0 0.0
2018-May-15 00:30N 37°56' W 008°51'0 0.6
2018-May-15 00:00N 37°56' W 008°51'0 0.2
2018-May-14 23:30N 37°56' W 008°51'0 0.6
2018-May-14 23:00N 37°56' W 008°51'1 2.1
2018-May-14 22:30N 37°55' W 008°50'0 0.1
2018-May-14 22:00N 37°55' W 008°50'1 2.7
2018-May-14 21:30N 37°56' W 008°51'0 0.1
2018-May-14 21:00N 37°56' W 008°51'0 0.6
2018-May-14 20:31N 37°56' W 008°51'0 0.0
2018-May-14 20:00N 37°56' W 008°51'0 0.0
2018-May-14 19:31N 37°56' W 008°51'0 0.0
2018-May-14 19:00N 37°56' W 008°51'1 1.5
2018-May-14 18:30N 37°56' W 008°52'1 1.8
2018-May-14 18:00N 37°55' W 008°51'1 1.4
2018-May-14 17:30N 37°56' W 008°51'0 0.0
2018-May-14 17:00N 37°56' W 008°51'0 0.0
2018-May-14 16:30N 37°56' W 008°51'0 0.0
2018-May-14 16:01N 37°56' W 008°51'0 0.0
2018-May-14 15:30N 37°56' W 008°51'0 0.0
2018-May-14 15:00N 37°56' W 008°51'0 0.7
2018-May-14 14:30N 37°56' W 008°51'0 0.7
2018-May-14 14:01N 37°56' W 008°51'0 0.0
2018-May-14 13:30N 37°56' W 008°51'0 0.0
2018-May-14 13:00N 37°56' W 008°51'0 0.7
2018-May-14 12:30N 37°56' W 008°51'1 1.1
2018-May-14 12:01N 37°55' W 008°50'2 3.3
2018-May-14 11:31N 37°54' W 008°51'2 4.5
2018-May-14 11:01N 37°56' W 008°51'0 0.2
2018-May-14 10:30N 37°56' W 008°51'0 0.0
2018-May-14 10:00N 37°56' W 008°51'0 0.0
2018-May-14 09:30N 37°56' W 008°51'0 0.0
2018-May-14 09:01N 37°56' W 008°51'0 0.0
2018-May-14 08:30N 37°56' W 008°51'0 0.0
2018-May-14 08:00N 37°56' W 008°51'0 0.0
2018-May-14 07:30N 37°56' W 008°51'0 0.0
2018-May-14 07:00N 37°56' W 008°51'0 0.0
2018-May-14 06:30N 37°56' W 008°51'0 0.0
2018-May-14 06:00N 37°56' W 008°51'0 0.0
2018-May-14 05:31N 37°56' W 008°51'0 0.2
2018-May-14 05:00N 37°56' W 008°51'0 0.1
2018-May-14 04:30N 37°56' W 008°51'0 0.5
2018-May-14 04:00N 37°56' W 008°51'0 1.0
2018-May-14 03:30N 37°55' W 008°50'2 4.1
2018-May-14 03:00N 37°55' W 008°53'510.9
2018-May-14 02:31N 37°60' W 008°57'510.5
2018-May-14 02:00N 38°05' W 008°59'510.6
2018-May-14 01:30N 38°10' W 008°59'510.6
2018-May-14 01:00N 38°15' W 008°59'510.7
2018-May-14 00:30N 38°21' W 008°59'510.7
2018-May-14 00:00N 38°26' W 008°59'4 8.7
2018-May-13 23:30N 38°30' W 008°56'4 7.4
2018-May-13 22:58N 38°30' W 008°50'0 0.2
2018-May-13 22:01N 38°30' W 008°50'0 0.0
2018-May-13 21:53N 38°30' W 008°50'0 0.0
2018-May-13 20:33N 38°30' W 008°50'0 0.1
2018-May-13 20:29N 38°30' W 008°50'0 0.0
2018-May-13 19:45N 38°30' W 008°50'0 0.0
2018-May-13 19:28N 38°30' W 008°50'0 0.0
2018-May-13 18:52N 38°30' W 008°50'0 0.0
2018-May-13 18:27N 38°30' W 008°50'0 0.0
2018-May-13 17:58N 38°30' W 008°50'0 0.0
2018-May-13 17:18N 38°30' W 008°50'0 0.0
2018-May-13 16:54N 38°30' W 008°50'0 0.0
2018-May-13 16:30N 38°30' W 008°50'0 0.0
2018-May-13 15:49N 38°30' W 008°50'0 0.0
2018-May-13 15:29N 38°30' W 008°50'0 0.0
2018-May-13 14:45N 38°30' W 008°50'0 0.0
2018-May-13 14:28N 38°30' W 008°50'0 0.0
2018-May-13 13:55N 38°30' W 008°50'0 0.0
2018-May-13 13:30N 38°30' W 008°50'0 0.0
2018-May-13 12:54N 38°30' W 008°50'0 0.0
2018-May-13 12:19N 38°30' W 008°50'0 0.0
2018-May-13 11:57N 38°30' W 008°50'0 0.0
2018-May-13 11:30N 38°30' W 008°50'0 0.0
2018-May-13 10:58N 38°30' W 008°50'0 0.0
2018-May-13 10:26N 38°30' W 008°50'0 0.0
2018-May-13 09:54N 38°30' W 008°50'0 0.0
2018-May-13 09:28N 38°30' W 008°50'0 0.0
2018-May-13 09:00N 38°30' W 008°50'0 0.0
2018-May-13 08:30N 38°30' W 008°50'0 0.0
2018-May-13 07:57N 38°30' W 008°50'0 0.0
2018-May-13 07:28N 38°30' W 008°50'0 0.0
2018-May-13 07:00N 38°30' W 008°50'0 0.0
2018-May-13 06:30N 38°30' W 008°50'0 0.0
2018-May-13 05:58N 38°30' W 008°50'0 0.0
2018-May-13 05:29N 38°30' W 008°50'0 0.0
2018-May-13 04:58N 38°30' W 008°50'0 0.0
2018-May-13 04:26N 38°30' W 008°50'0 0.0
2018-May-13 03:53N 38°30' W 008°50'0 0.0
2018-May-13 03:30N 38°30' W 008°50'0 0.0
2018-May-13 02:49N 38°30' W 008°50'0 0.0
2018-May-13 02:27N 38°30' W 008°50'0 0.0
2018-May-12 19:40N 38°30' W 008°50'0 0.0
2018-May-12 19:30N 38°30' W 008°50'0 0.0
2018-May-12 19:00N 38°30' W 008°50'0 0.0
2018-May-12 18:29N 38°30' W 008°50'0 0.0
2018-May-12 18:00N 38°30' W 008°50'0 0.0
2018-May-12 17:30N 38°30' W 008°50'0 0.0
2018-May-12 16:55N 38°30' W 008°50'0 0.0
2018-May-12 16:30N 38°30' W 008°50'0 0.0
2018-May-12 15:59N 38°30' W 008°50'0 0.0
2018-May-12 15:17N 38°30' W 008°50'0 0.0
2018-May-12 15:00N 38°30' W 008°50'0 0.0
2018-May-12 14:28N 38°30' W 008°50'0 0.0
2018-May-12 13:58N 38°30' W 008°50'0 0.0
2018-May-12 13:30N 38°30' W 008°50'0 0.0
2018-May-12 12:50N 38°30' W 008°50'0 0.0
2018-May-12 12:25N 38°30' W 008°50'0 0.0
2018-May-12 11:55N 38°30' W 008°50'0 0.0
2018-May-12 11:27N 38°30' W 008°50'0 0.0
2018-May-12 10:57N 38°30' W 008°50'0 0.0
2018-May-12 10:28N 38°30' W 008°50'0 0.0
2018-May-12 10:00N 38°30' W 008°50'0 0.0
2018-May-12 09:29N 38°30' W 008°50'0 0.0
2018-May-12 08:53N 38°30' W 008°50'0 0.0
2018-May-12 08:29N 38°30' W 008°50'0 0.0
2018-May-12 07:54N 38°30' W 008°50'0 0.0
2018-May-12 07:27N 38°30' W 008°50'0 0.0
2018-May-12 07:00N 38°30' W 008°50'0 0.0
2018-May-12 06:27N 38°30' W 008°50'0 0.0
2018-May-12 05:58N 38°30' W 008°50'0 0.0
2018-May-12 05:25N 38°30' W 008°50'0 0.0
2018-May-12 04:51N 38°30' W 008°50'0 0.0
2018-May-12 04:30N 38°30' W 008°50'0 0.0
2018-May-12 03:50N 38°30' W 008°50'0 0.0
2018-May-12 03:29N 38°30' W 008°50'0 0.0
2018-May-12 02:42N 38°30' W 008°50'0 0.0
2018-May-12 02:27N 38°30' W 008°50'0 0.0
2018-May-12 01:58N 38°30' W 008°50'0 0.0
2018-May-12 01:30N 38°30' W 008°50'0 0.0
2018-May-12 00:55N 38°30' W 008°50'0 0.0
2018-May-12 00:30N 38°30' W 008°50'0 0.0
2018-May-12 00:00N 38°30' W 008°50'0 0.0
2018-May-11 23:29N 38°30' W 008°50'0 0.0
2018-May-11 23:00N 38°30' W 008°50'0 0.0
2018-May-11 22:30N 38°30' W 008°50'0 0.0
2018-May-11 22:00N 38°30' W 008°50'0 0.0
2018-May-11 21:30N 38°30' W 008°50'0 0.0
2018-May-11 21:00N 38°30' W 008°50'0 0.0
2018-May-11 20:31N 38°30' W 008°50'0 0.0
2018-May-11 20:00N 38°30' W 008°50'0 0.0
2018-May-11 19:30N 38°30' W 008°50'0 0.0
2018-May-11 18:58N 38°30' W 008°50'0 0.0
2018-May-11 18:30N 38°30' W 008°50'0 0.0
2018-May-11 17:58N 38°30' W 008°50'0 0.0
2018-May-11 17:27N 38°30' W 008°50'0 0.0
2018-May-11 17:00N 38°30' W 008°50'0 0.0
2018-May-11 16:25N 38°30' W 008°50'0 0.0
2018-May-11 15:51N 38°30' W 008°50'0 0.0
2018-May-11 15:24N 38°30' W 008°50'0 0.0
2018-May-11 14:55N 38°30' W 008°50'0 0.0
2018-May-11 14:26N 38°30' W 008°50'0 0.0
2018-May-11 13:57N 38°30' W 008°50'0 0.0
2018-May-11 13:30N 38°30' W 008°50'0 0.0
2018-May-11 12:51N 38°30' W 008°50'0 0.0
2018-May-11 12:30N 38°30' W 008°50'0 0.0
2018-May-11 11:48N 38°30' W 008°50'0 0.0
2018-May-11 11:29N 38°30' W 008°50'0 0.0
2018-May-11 10:56N 38°30' W 008°50'  
Track history (hours):
 
Tides and Currents Weather Stations Pressure Air Temp Water Temp Dewpoint Dewpoint Depression Visibility Wind Speed Wind Dir Waves Ship Positions

Svitzer Setubal

Last reported at 2018-May-21 10:42 UTC. Time now 2018-May-21 11:10 UTC.
Position N 38°30' W 008°50'.

Length 33 m; draft 4.4 m.

Type: Tug. MMSI: 263602553.

Date/timePositionNaut miles runAvg speedWind from/ knotsBaromVisibWave heightAir tempDewpointWater temp
2018-May-21 10:42N 38°30' W 008°50'0 0.0
2018-May-21 10:29N 38°30' W 008°50'0 0.0
2018-May-21 09:58N 38°30' W 008°50'0 0.0
2018-May-21 09:20N 38°30' W 008°50'1 2.6
2018-May-21 08:59N 38°30' W 008°51'2 3.7
2018-May-21 08:28N 38°30' W 008°54'4 8.1
2018-May-21 08:00N 38°28' W 008°49'2 3.4
2018-May-21 07:30N 38°28' W 008°47'0 0.2
2018-May-21 07:00N 38°28' W 008°47'1 1.0
2018-May-21 06:30N 38°28' W 008°48'0 0.0
2018-May-21 06:00N 38°28' W 008°48'3 5.1
2018-May-21 05:30N 38°28' W 008°51'3 6.2
2018-May-21 04:59N 38°31' W 008°54'3 5.8
2018-May-21 04:29N 38°30' W 008°50'0 0.0
2018-May-21 04:00N 38°30' W 008°50'0 0.0
2018-May-21 03:27N 38°30' W 008°50'0 0.0
2018-May-21 03:00N 38°30' W 008°50'0 0.0
2018-May-21 02:28N 38°30' W 008°50'0 0.0
2018-May-21 01:59N 38°30' W 008°50'0 0.0
2018-May-21 01:30N 38°30' W 008°50'0 0.0
2018-May-21 01:00N 38°30' W 008°50'0 0.0
2018-May-21 00:30N 38°30' W 008°50'0 0.0
2018-May-21 00:00N 38°30' W 008°50'0 0.0
2018-May-20 23:07N 38°30' W 008°50'0 0.0
2018-May-20 22:00N 38°30' W 008°50'0 0.0
2018-May-20 21:29N 38°30' W 008°50'2 3.2
2018-May-20 21:00N 38°31' W 008°52'1 2.8
2018-May-20 20:30N 38°29' W 008°53'4 7.9
2018-May-20 20:00N 38°28' W 008°48'1 1.8
2018-May-20 19:30N 38°28' W 008°47'1 2.8
2018-May-20 19:00N 38°28' W 008°49'3 5.1
2018-May-20 18:30N 38°29' W 008°52'3 5.0
2018-May-20 18:00N 38°28' W 008°49'1 1.6
2018-May-20 17:30N 38°28' W 008°48'3 5.4
2018-May-20 17:00N 38°28' W 008°51'3 6.4
2018-May-20 16:30N 38°31' W 008°54'3 6.0
2018-May-20 16:00N 38°30' W 008°50'0 0.0
2018-May-20 15:30N 38°30' W 008°50'0 0.0
2018-May-20 15:00N 38°30' W 008°50'0 0.0
2018-May-20 14:30N 38°30' W 008°50'0 0.0
2018-May-20 14:00N 38°30' W 008°50'0 0.0
2018-May-20 13:30N 38°30' W 008°50'0 0.0
2018-May-20 13:00N 38°30' W 008°50'0 0.0
2018-May-20 12:30N 38°30' W 008°50'0 0.0
2018-May-20 12:00N 38°30' W 008°50'0 0.0
2018-May-20 11:30N 38°30' W 008°50'0 0.0
2018-May-20 11:00N 38°30' W 008°50'0 0.0
2018-May-20 10:30N 38°30' W 008°50'0 0.0
2018-May-20 10:00N 38°30' W 008°50'0 0.0
2018-May-20 09:30N 38°30' W 008°50'0 0.0
2018-May-20 09:00N 38°30' W 008°50'3 5.5
2018-May-20 08:30N 38°31' W 008°53'2 4.8
2018-May-20 08:01N 38°29' W 008°52'1 1.6
2018-May-20 07:30N 38°28' W 008°51'3 4.9
2018-May-20 06:59N 38°28' W 008°48'0 0.8
2018-May-20 06:30N 38°28' W 008°48'0 0.1
2018-May-20 06:00N 38°28' W 008°48'0 0.1
2018-May-20 05:30N 38°28' W 008°48'3 5.5
2018-May-20 04:58N 38°29' W 008°52'3 5.7
2018-May-20 04:30N 38°31' W 008°54'3 5.8
2018-May-20 04:00N 38°30' W 008°50'0 0.0
2018-May-20 03:28N 38°30' W 008°50'0 0.0
2018-May-20 03:00N 38°30' W 008°50'0 0.0
2018-May-20 02:30N 38°30' W 008°50'0 0.0
2018-May-20 02:00N 38°30' W 008°50'0 0.0
2018-May-20 01:28N 38°30' W 008°50'0 0.0
2018-May-20 01:00N 38°30' W 008°50'0 0.0
2018-May-20 00:30N 38°30' W 008°50'0 0.0
2018-May-19 23:59N 38°30' W 008°50'0 0.0
2018-May-19 23:30N 38°30' W 008°50'0 0.0
2018-May-19 22:55N 38°30' W 008°50'0 0.0
2018-May-19 22:29N 38°30' W 008°50'0 0.0
2018-May-19 21:39N 38°30' W 008°50'0 0.0
2018-May-19 21:30N 38°30' W 008°50'0 0.0
2018-May-19 20:58N 38°30' W 008°50'0 0.0
2018-May-19 20:20N 38°30' W 008°50'0 0.0
2018-May-19 19:59N 38°30' W 008°50'0 0.0
2018-May-19 19:29N 38°30' W 008°50'0 0.0
2018-May-19 18:59N 38°30' W 008°50'0 0.0
2018-May-19 18:29N 38°30' W 008°50'0 0.0
2018-May-19 18:00N 38°30' W 008°50'0 0.0
2018-May-19 17:29N 38°30' W 008°50'0 0.0
2018-May-19 16:59N 38°30' W 008°50'0 0.0
2018-May-19 16:30N 38°30' W 008°50'0 0.0
2018-May-19 16:00N 38°30' W 008°50'0 0.0
2018-May-19 15:30N 38°30' W 008°50'0 0.0
2018-May-19 15:00N 38°30' W 008°50'0 0.0
2018-May-19 14:31N 38°30' W 008°50'0 0.0
2018-May-19 14:00N 38°30' W 008°50'0 0.0
2018-May-19 13:30N 38°30' W 008°50'0 0.0
2018-May-19 13:00N 38°30' W 008°50'0 0.0
2018-May-19 12:30N 38°30' W 008°50'0 0.0
2018-May-19 12:00N 38°30' W 008°50'0 0.0
2018-May-19 11:30N 38°30' W 008°50'0 0.0
2018-May-19 11:01N 38°30' W 008°50'0 0.0
2018-May-19 10:29N 38°30' W 008°50'0 0.0
2018-May-19 09:54N 38°30' W 008°50'0 0.0
2018-May-19 09:12N 38°30' W 008°50'0 0.0
2018-May-19 08:26N 38°30' W 008°50'0 0.0
2018-May-19 07:58N 38°30' W 008°50'0 0.0
2018-May-19 07:29N 38°30' W 008°50'0 0.0
2018-May-19 06:55N 38°30' W 008°50'0 0.0
2018-May-19 06:27N 38°30' W 008°50'0 0.0
2018-May-19 06:00N 38°30' W 008°50'0 0.0
2018-May-19 05:30N 38°30' W 008°50'0 0.0
2018-May-19 05:00N 38°30' W 008°50'0 0.0
2018-May-19 04:06N 38°30' W 008°50'0 0.0
2018-May-19 04:00N 38°30' W 008°50'0 0.0
2018-May-19 03:31N 38°30' W 008°50'0 0.0
2018-May-19 03:00N 38°30' W 008°50'0 0.0
2018-May-19 02:31N 38°30' W 008°50'0 0.0
2018-May-19 01:58N 38°30' W 008°50'0 0.0
2018-May-19 01:27N 38°30' W 008°50'0 0.0
2018-May-19 01:00N 38°30' W 008°50'0 0.0
2018-May-19 00:29N 38°30' W 008°50'0 0.0
2018-May-18 23:59N 38°30' W 008°50'0 0.0
2018-May-18 23:27N 38°30' W 008°50'0 0.0
2018-May-18 22:59N 38°30' W 008°50'0 0.0
2018-May-18 22:30N 38°30' W 008°50'0 0.0
2018-May-18 21:57N 38°30' W 008°50'0 0.0
2018-May-18 21:26N 38°30' W 008°50'0 0.0
2018-May-18 20:59N 38°30' W 008°50'0 0.0
2018-May-18 19:37N 38°30' W 008°50'0 0.0
2018-May-18 19:21N 38°30' W 008°50'0 0.0
2018-May-18 18:53N 38°30' W 008°50'0 0.0
2018-May-18 18:30N 38°30' W 008°50'0 0.0
2018-May-18 17:59N 38°30' W 008°50'0 0.0
2018-May-18 17:07N 38°30' W 008°50'0 0.0
2018-May-18 16:58N 38°30' W 008°50'0 0.0
2018-May-18 16:21N 38°30' W 008°50'0 0.0
2018-May-18 16:00N 38°30' W 008°50'0 0.0
2018-May-18 15:29N 38°30' W 008°50'0 0.0
2018-May-18 15:00N 38°30' W 008°50'0 0.0
2018-May-18 14:18N 38°30' W 008°50'0 0.0
2018-May-18 13:58N 38°30' W 008°50'0 0.0
2018-May-18 13:27N 38°30' W 008°50'0 0.1
2018-May-18 13:00N 38°30' W 008°50'4 6.7
2018-May-18 12:29N 38°30' W 008°55'4 8.0
2018-May-18 12:00N 38°27' W 008°58'4 7.7
2018-May-18 11:30N 38°23' W 008°59'4 8.0
2018-May-18 11:00N 38°20' W 008°59'4 7.9
2018-May-18 10:30N 38°16' W 008°58'4 8.0
2018-May-18 10:00N 38°12' W 008°57'4 7.8
2018-May-18 09:30N 38°08' W 008°56'4 7.9
2018-May-18 09:00N 38°04' W 008°56'4 7.9
2018-May-18 08:30N 37°60' W 008°55'4 7.8
2018-May-18 08:00N 37°56' W 008°54'2 4.1
2018-May-18 07:30N 37°57' W 008°52'0 0.0
2018-May-18 07:01N 37°57' W 008°52'0 0.0
2018-May-18 06:30N 37°57' W 008°52'1 1.4
2018-May-18 06:01N 37°56' W 008°52'1 2.4
2018-May-18 05:30N 37°56' W 008°51'0 0.5
2018-May-18 05:00N 37°56' W 008°51'1 1.2
2018-May-18 04:30N 37°55' W 008°50'1 1.2
2018-May-18 04:00N 37°55' W 008°51'1 2.9
2018-May-18 03:30N 37°57' W 008°52'0 0.7
2018-May-18 03:00N 37°57' W 008°52'0 0.0
2018-May-18 02:30N 37°57' W 008°52'0 0.0
2018-May-18 02:00N 37°57' W 008°52'0 0.0
2018-May-18 01:30N 37°57' W 008°52'0 0.0
2018-May-18 01:00N 37°57' W 008°52'0 0.0
2018-May-18 00:30N 37°57' W 008°52'0 0.0
2018-May-18 00:00N 37°57' W 008°52'0 0.0
2018-May-17 23:30N 37°57' W 008°52'0 0.0
2018-May-17 23:00N 37°57' W 008°52'0 0.0
2018-May-17 22:30N 37°57' W 008°52'0 0.0
2018-May-17 22:01N 37°57' W 008°52'0 0.0
2018-May-17 21:30N 37°57' W 008°52'0 0.0
2018-May-17 21:00N 37°57' W 008°52'0 0.0
2018-May-17 20:30N 37°57' W 008°52'0 0.0
2018-May-17 20:00N 37°57' W 008°52'0 0.0
2018-May-17 19:30N 37°57' W 008°52'0 0.0
2018-May-17 19:00N 37°57' W 008°52'0 0.0
2018-May-17 18:30N 37°57' W 008°52'0 0.0
2018-May-17 18:01N 37°57' W 008°52'0 0.0
2018-May-17 17:30N 37°57' W 008°52'0 0.0
2018-May-17 17:01N 37°57' W 008°52'0 0.0
2018-May-17 16:30N 37°57' W 008°52'0 0.0
2018-May-17 16:00N 37°57' W 008°52'0 0.0
2018-May-17 15:30N 37°57' W 008°52'0 0.0
2018-May-17 15:00N 37°57' W 008°52'0 0.0
2018-May-17 14:30N 37°57' W 008°52'0 0.0
2018-May-17 14:00N 37°57' W 008°52'0 0.0
2018-May-17 13:30N 37°57' W 008°52'0 0.0
2018-May-17 13:00N 37°57' W 008°52'0 0.0
2018-May-17 12:30N 37°57' W 008°52'0 0.0
2018-May-17 12:00N 37°57' W 008°52'0 0.0
2018-May-17 11:30N 37°57' W 008°52'0 0.0
2018-May-17 11:00N 37°57' W 008°52'0 0.0
2018-May-17 10:31N 37°57' W 008°52'0 0.0
2018-May-17 10:00N 37°57' W 008°52'0 0.0
2018-May-17 09:30N 37°57' W 008°52'0 0.0
2018-May-17 09:00N 37°57' W 008°52'0 0.0
2018-May-17 08:30N 37°57' W 008°52'0 0.0
2018-May-17 08:00N 37°57' W 008°52'0 0.0
2018-May-17 07:30N 37°57' W 008°52'0 0.0
2018-May-17 07:01N 37°57' W 008°52'0 0.0
2018-May-17 06:30N 37°57' W 008°52'0 0.0
2018-May-17 06:01N 37°57' W 008°52'0 0.0
2018-May-17 05:31N 37°57' W 008°52'0 0.0
2018-May-17 05:00N 37°57' W 008°52'0 0.0
2018-May-17 04:30N 37°57' W 008°52'0 0.0
2018-May-17 04:01N 37°57' W 008°52'0 0.0
2018-May-17 03:30N 37°57' W 008°52'0 0.0
2018-May-17 03:00N 37°57' W 008°52'0 0.0
2018-May-17 02:30N 37°57' W 008°52'0 0.0
2018-May-17 02:00N 37°57' W 008°52'0 0.0
2018-May-17 01:31N 37°57' W 008°52'0 0.0
2018-May-17 01:00N 37°57' W 008°52'0 0.0
2018-May-17 00:31N 37°57' W 008°52'0 0.0
2018-May-17 00:00N 37°57' W 008°52'0 0.0
2018-May-16 23:31N 37°57' W 008°52'0 0.0
2018-May-16 23:00N 37°57' W 008°52'0 0.0
2018-May-16 22:30N 37°57' W 008°52'0 0.0
2018-May-16 22:00N 37°57' W 008°52'0 0.0
2018-May-16 21:31N 37°57' W 008°52'0 0.0
2018-May-16 21:00N 37°57' W 008°52'0 0.0
2018-May-16 20:31N 37°57' W 008°52'0 0.0
2018-May-16 20:01N 37°57' W 008°52'2 4.5
2018-May-16 19:30N 37°57' W 008°54'4 7.5
2018-May-16 19:00N 38°01' W 008°55'2 4.6
2018-May-16 18:30N 37°59' W 008°55'3 5.8
2018-May-16 18:00N 37°56' W 008°52'1 1.6
2018-May-16 17:30N 37°57' W 008°52'0 0.0
2018-May-16 17:00N 37°57' W 008°52'0 0.0
2018-May-16 16:30N 37°57' W 008°52'0 0.0
2018-May-16 16:00N 37°57' W 008°52'0 0.0
2018-May-16 15:30N 37°57' W 008°52'0 0.0
2018-May-16 15:00N 37°57' W 008°52'0 0.0
2018-May-16 14:31N 37°57' W 008°52'0 0.0
2018-May-16 14:00N 37°57' W 008°52'0 0.0
2018-May-16 13:30N 37°57' W 008°52'0 0.0
2018-May-16 13:01N 37°57' W 008°52'0 0.0
2018-May-16 12:30N 37°57' W 008°52'0 0.0
2018-May-16 12:00N 37°57' W 008°52'0 0.0
2018-May-16 11:31N 37°57' W 008°52'0 0.0
2018-May-16 11:01N 37°57' W 008°52'0 0.0
2018-May-16 10:30N 37°57' W 008°52'0 0.0
2018-May-16 10:00N 37°57' W 008°52'0 0.0
2018-May-16 09:30N 37°57' W 008°52'0 0.0
2018-May-16 09:00N 37°57' W 008°52'0 0.0
2018-May-16 08:31N 37°57' W 008°52'0 0.0
2018-May-16 08:00N 37°57' W 008°52'0 0.0
2018-May-16 07:30N 37°57' W 008°52'1 1.2
2018-May-16 07:01N 37°56' W 008°52'1 1.8
2018-May-16 06:31N 37°56' W 008°51'0 0.0
2018-May-16 06:00N 37°56' W 008°51'0 0.0
2018-May-16 05:30N 37°56' W 008°51'0 0.0
2018-May-16 05:00N 37°56' W 008°51'0 0.0
2018-May-16 04:31N 37°56' W 008°51'0 0.0
2018-May-16 04:00N 37°56' W 008°51'0 0.0
2018-May-16 03:30N 37°56' W 008°51'0 0.0
2018-May-16 03:01N 37°56' W 008°51'0 0.0
2018-May-16 02:30N 37°56' W 008°51'0 0.0
2018-May-16 02:00N 37°56' W 008°51'0 0.0
2018-May-16 01:30N 37°56' W 008°51'0 0.0
2018-May-16 01:00N 37°56' W 008°51'0 0.0
2018-May-16 00:30N 37°56' W 008°51'0 0.0
2018-May-16 00:00N 37°56' W 008°51'0 0.0
2018-May-15 23:31N 37°56' W 008°51'0 0.0
2018-May-15 23:00N 37°56' W 008°51'0 0.0
2018-May-15 22:30N 37°56' W 008°51'0 0.0
2018-May-15 22:01N 37°56' W 008°51'0 0.0
2018-May-15 21:31N 37°56' W 008°51'0 0.0
2018-May-15 21:00N 37°56' W 008°51'0 0.0
2018-May-15 20:30N 37°56' W 008°51'0 0.0
2018-May-15 20:00N 37°56' W 008°51'0 0.0
2018-May-15 19:30N 37°56' W 008°51'0 0.0
2018-May-15 19:00N 37°56' W 008°51'0 0.0
2018-May-15 18:30N 37°56' W 008°51'0 0.0
2018-May-15 18:00N 37°56' W 008°51'0 0.0
2018-May-15 17:30N 37°56' W 008°51'0 0.0
2018-May-15 17:00N 37°56' W 008°51'0 0.0
2018-May-15 16:30N 37°56' W 008°51'0 0.0
2018-May-15 16:01N 37°56' W 008°51'0 0.0
2018-May-15 15:31N 37°56' W 008°51'0 0.0
2018-May-15 15:00N 37°56' W 008°51'0 0.0
2018-May-15 14:30N 37°56' W 008°51'0 0.0
2018-May-15 14:01N 37°56' W 008°51'0 0.3
2018-May-15 13:30N 37°56' W 008°51'0 0.3
2018-May-15 13:00N 37°56' W 008°51'2 3.7
2018-May-15 12:30N 37°54' W 008°50'2 3.7
2018-May-15 12:01N 37°56' W 008°51'0 0.1
2018-May-15 11:30N 37°56' W 008°51'0 0.6
2018-May-15 11:00N 37°56' W 008°51'0 0.0
2018-May-15 10:30N 37°56' W 008°51'0 0.0
2018-May-15 10:00N 37°56' W 008°51'0 0.0
2018-May-15 09:30N 37°56' W 008°51'0 0.3
2018-May-15 09:01N 37°56' W 008°51'2 3.3
2018-May-15 08:31N 37°54' W 008°50'2 3.4
2018-May-15 08:00N 37°56' W 008°51'0 0.3
2018-May-15 07:31N 37°56' W 008°51'0 0.0
2018-May-15 07:00N 37°56' W 008°51'0 0.0
2018-May-15 06:30N 37°56' W 008°51'0 0.0
2018-May-15 06:00N 37°56' W 008°51'0 0.0
2018-May-15 05:30N 37°56' W 008°51'0 0.0
2018-May-15 05:00N 37°56' W 008°51'0 0.0
2018-May-15 04:31N 37°56' W 008°51'0 0.0
2018-May-15 04:00N 37°56' W 008°51'0 0.0
2018-May-15 03:30N 37°56' W 008°51'0 0.0
2018-May-15 03:00N 37°56' W 008°51'0 0.0
2018-May-15 02:30N 37°56' W 008°51'0 0.0
2018-May-15 02:00N 37°56' W 008°51'0 0.0
2018-May-15 01:30N 37°56' W 008°51'0 0.0
2018-May-15 01:00N 37°56' W 008°51'0 0.0
2018-May-15 00:30N 37°56' W 008°51'0 0.6
2018-May-15 00:00N 37°56' W 008°51'0 0.2
2018-May-14 23:30N 37°56' W 008°51'0 0.6
2018-May-14 23:00N 37°56' W 008°51'1 2.1
2018-May-14 22:30N 37°55' W 008°50'0 0.1
2018-May-14 22:00N 37°55' W 008°50'1 2.7
2018-May-14 21:30N 37°56' W 008°51'0 0.1
2018-May-14 21:00N 37°56' W 008°51'0 0.6
2018-May-14 20:31N 37°56' W 008°51'0 0.0
2018-May-14 20:00N 37°56' W 008°51'0 0.0
2018-May-14 19:31N 37°56' W 008°51'0 0.0
2018-May-14 19:00N 37°56' W 008°51'1 1.5
2018-May-14 18:30N 37°56' W 008°52'1 1.8
2018-May-14 18:00N 37°55' W 008°51'1 1.4
2018-May-14 17:30N 37°56' W 008°51'0 0.0
2018-May-14 17:00N 37°56' W 008°51'0 0.0
2018-May-14 16:30N 37°56' W 008°51'0 0.0
2018-May-14 16:01N 37°56' W 008°51'0 0.0
2018-May-14 15:30N 37°56' W 008°51'0 0.0
2018-May-14 15:00N 37°56' W 008°51'0 0.7
2018-May-14 14:30N 37°56' W 008°51'0 0.7
2018-May-14 14:01N 37°56' W 008°51'0 0.0
2018-May-14 13:30N 37°56' W 008°51'0 0.0
2018-May-14 13:00N 37°56' W 008°51'0 0.7
2018-May-14 12:30N 37°56' W 008°51'1 1.1
2018-May-14 12:01N 37°55' W 008°50'2 3.3
2018-May-14 11:31N 37°54' W 008°51'2 4.5
2018-May-14 11:01N 37°56' W 008°51'0 0.2
2018-May-14 10:30N 37°56' W 008°51'0 0.0
2018-May-14 10:00N 37°56' W 008°51'0 0.0
2018-May-14 09:30N 37°56' W 008°51'0 0.0
2018-May-14 09:01N 37°56' W 008°51'0 0.0
2018-May-14 08:30N 37°56' W 008°51'0 0.0
2018-May-14 08:00N 37°56' W 008°51'0 0.0
2018-May-14 07:30N 37°56' W 008°51'0 0.0
2018-May-14 07:00N 37°56' W 008°51'0 0.0
2018-May-14 06:30N 37°56' W 008°51'0 0.0
2018-May-14 06:00N 37°56' W 008°51'0 0.0
2018-May-14 05:31N 37°56' W 008°51'0 0.2
2018-May-14 05:00N 37°56' W 008°51'0 0.1
2018-May-14 04:30N 37°56' W 008°51'0 0.5
2018-May-14 04:00N 37°56' W 008°51'0 1.0
2018-May-14 03:30N 37°55' W 008°50'2 4.1
2018-May-14 03:00N 37°55' W 008°53'510.9
2018-May-14 02:31N 37°60' W 008°57'510.5
2018-May-14 02:00N 38°05' W 008°59'510.6
2018-May-14 01:30N 38°10' W 008°59'510.6
2018-May-14 01:00N 38°15' W 008°59'510.7
2018-May-14 00:30N 38°21' W 008°59'510.7
2018-May-14 00:00N 38°26' W 008°59'4 8.7
2018-May-13 23:30N 38°30' W 008°56'4 7.4
2018-May-13 22:58N 38°30' W 008°50'0 0.2
2018-May-13 22:01N 38°30' W 008°50'0 0.0
2018-May-13 21:53N 38°30' W 008°50'0 0.0
2018-May-13 20:33N 38°30' W 008°50'0 0.1
2018-May-13 20:29N 38°30' W 008°50'0 0.0
2018-May-13 19:45N 38°30' W 008°50'0 0.0
2018-May-13 19:28N 38°30' W 008°50'0 0.0
2018-May-13 18:52N 38°30' W 008°50'0 0.0
2018-May-13 18:27N 38°30' W 008°50'0 0.0
2018-May-13 17:58N 38°30' W 008°50'0 0.0
2018-May-13 17:18N 38°30' W 008°50'0 0.0
2018-May-13 16:54N 38°30' W 008°50'0 0.0
2018-May-13 16:30N 38°30' W 008°50'0 0.0
2018-May-13 15:49N 38°30' W 008°50'0 0.0
2018-May-13 15:29N 38°30' W 008°50'0 0.0
2018-May-13 14:45N 38°30' W 008°50'0 0.0
2018-May-13 14:28N 38°30' W 008°50'0 0.0
2018-May-13 13:55N 38°30' W 008°50'0 0.0
2018-May-13 13:30N 38°30' W 008°50'0 0.0
2018-May-13 12:54N 38°30' W 008°50'0 0.0
2018-May-13 12:19N 38°30' W 008°50'0 0.0
2018-May-13 11:57N 38°30' W 008°50'0 0.0
2018-May-13 11:30N 38°30' W 008°50'0 0.0
2018-May-13 10:58N 38°30' W 008°50'0 0.0
2018-May-13 10:26N 38°30' W 008°50'0 0.0
2018-May-13 09:54N 38°30' W 008°50'0 0.0
2018-May-13 09:28N 38°30' W 008°50'0 0.0
2018-May-13 09:00N 38°30' W 008°50'0 0.0
2018-May-13 08:30N 38°30' W 008°50'0 0.0
2018-May-13 07:57N 38°30' W 008°50'0 0.0
2018-May-13 07:28N 38°30' W 008°50'0 0.0
2018-May-13 07:00N 38°30' W 008°50'0 0.0
2018-May-13 06:30N 38°30' W 008°50'0 0.0
2018-May-13 05:58N 38°30' W 008°50'0 0.0
2018-May-13 05:29N 38°30' W 008°50'0 0.0
2018-May-13 04:58N 38°30' W 008°50'0 0.0
2018-May-13 04:26N 38°30' W 008°50'0 0.0
2018-May-13 03:53N 38°30' W 008°50'0 0.0
2018-May-13 03:30N 38°30' W 008°50'0 0.0
2018-May-13 02:49N 38°30' W 008°50'0 0.0
2018-May-13 02:27N 38°30' W 008°50'0 0.0
2018-May-12 19:40N 38°30' W 008°50'0 0.0
2018-May-12 19:30N 38°30' W 008°50'0 0.0
2018-May-12 19:00N 38°30' W 008°50'0 0.0
2018-May-12 18:29N 38°30' W 008°50'0 0.0
2018-May-12 18:00N 38°30' W 008°50'0 0.0
2018-May-12 17:30N 38°30' W 008°50'0 0.0
2018-May-12 16:55N 38°30' W 008°50'0 0.0
2018-May-12 16:30N 38°30' W 008°50'0 0.0
2018-May-12 15:59N 38°30' W 008°50'0 0.0
2018-May-12 15:17N 38°30' W 008°50'0 0.0
2018-May-12 15:00N 38°30' W 008°50'0 0.0
2018-May-12 14:28N 38°30' W 008°50'0 0.0
2018-May-12 13:58N 38°30' W 008°50'0 0.0
2018-May-12 13:30N 38°30' W 008°50'0 0.0
2018-May-12 12:50N 38°30' W 008°50'0 0.0
2018-May-12 12:25N 38°30' W 008°50'0 0.0
2018-May-12 11:55N 38°30' W 008°50'0 0.0
2018-May-12 11:27N 38°30' W 008°50'0 0.0
2018-May-12 10:57N 38°30' W 008°50'0 0.0
2018-May-12 10:28N 38°30' W 008°50'0 0.0
2018-May-12 10:00N 38°30' W 008°50'0 0.0
2018-May-12 09:29N 38°30' W 008°50'0 0.0
2018-May-12 08:53N 38°30' W 008°50'0 0.0
2018-May-12 08:29N 38°30' W 008°50'0 0.0
2018-May-12 07:54N 38°30' W 008°50'0 0.0
2018-May-12 07:27N 38°30' W 008°50'0 0.0
2018-May-12 07:00N 38°30' W 008°50'0 0.0
2018-May-12 06:27N 38°30' W 008°50'0 0.0
2018-May-12 05:58N 38°30' W 008°50'0 0.0
2018-May-12 05:25N 38°30' W 008°50'0 0.0
2018-May-12 04:51N 38°30' W 008°50'0 0.0
2018-May-12 04:30N 38°30' W 008°50'0 0.0
2018-May-12 03:50N 38°30' W 008°50'0 0.0
2018-May-12 03:29N 38°30' W 008°50'0 0.0
2018-May-12 02:42N 38°30' W 008°50'0 0.0
2018-May-12 02:27N 38°30' W 008°50'0 0.0
2018-May-12 01:58N 38°30' W 008°50'0 0.0
2018-May-12 01:30N 38°30' W 008°50'0 0.0
2018-May-12 00:55N 38°30' W 008°50'0 0.0
2018-May-12 00:30N 38°30' W 008°50'0 0.0
2018-May-12 00:00N 38°30' W 008°50'0 0.0
2018-May-11 23:29N 38°30' W 008°50'0 0.0
2018-May-11 23:00N 38°30' W 008°50'0 0.0
2018-May-11 22:30N 38°30' W 008°50'0 0.0
2018-May-11 22:00N 38°30' W 008°50'0 0.0
2018-May-11 21:30N 38°30' W 008°50'0 0.0
2018-May-11 21:00N 38°30' W 008°50'0 0.0
2018-May-11 20:31N 38°30' W 008°50'0 0.0
2018-May-11 20:00N 38°30' W 008°50'0 0.0
2018-May-11 19:30N 38°30' W 008°50'0 0.0
2018-May-11 18:58N 38°30' W 008°50'0 0.0
2018-May-11 18:30N 38°30' W 008°50'0 0.0
2018-May-11 17:58N 38°30' W 008°50'0 0.0
2018-May-11 17:27N 38°30' W 008°50'0 0.0
2018-May-11 17:00N 38°30' W 008°50'0 0.0
2018-May-11 16:25N 38°30' W 008°50'0 0.0
2018-May-11 15:51N 38°30' W 008°50'0 0.0
2018-May-11 15:24N 38°30' W 008°50'0 0.0
2018-May-11 14:55N 38°30' W 008°50'0 0.0
2018-May-11 14:26N 38°30' W 008°50'0 0.0
2018-May-11 13:57N 38°30' W 008°50'0 0.0
2018-May-11 13:30N 38°30' W 008°50'0 0.0
2018-May-11 12:51N 38°30' W 008°50'0 0.0
2018-May-11 12:30N 38°30' W 008°50'0 0.0
2018-May-11 11:48N 38°30' W 008°50'0 0.0
2018-May-11 11:29N 38°30' W 008°50'0 0.0
2018-May-11 10:56N 38°30' W 008°50'  

Dump ship's entire track history